Time;durP1;ratioP1;P1;durP2;ratioP2;P2;SDS_P1;SDS_P2;PMS_P1;PMS_P2;Temp;Humidity;BMP_temperature;BMP_pressure;BME280_temperature;BME280_humidity;BME280_pressure;Samples;Min_cycle;Max_cycle;Signal;HPM_P1;HPM_P2
2022/03/13 00:00:53;;;;;;;16.70;10.15;;;6.50;99.90;;;;;;4989566;28;20051;-91
2022/03/13 00:03:21;;;;;;;17.48;9.93;;;6.50;99.90;;;;;;5021475;28;20065;-92
2022/03/13 00:05:50;;;;;;;15.82;9.95;;;7.00;99.90;;;;;;5032598;28;20043;-83
2022/03/13 00:08:23;;;;;;;16.95;9.93;;;6.40;99.90;;;;;;5046079;28;20489;-83
2022/03/13 00:10:56;;;;;;;;;;;6.30;99.90;;;;;;5017670;28;20044;-83
2022/03/13 00:13:24;;;;;;;16.50;10.30;;;6.20;99.90;;;;;;5026427;28;19938;-83
2022/03/13 00:15:51;;;;;;;17.77;10.38;;;6.20;99.90;;;;;;4986833;28;20060;-83
2022/03/13 00:18:20;;;;;;;17.52;10.30;;;6.50;99.90;;;;;;5016530;28;20471;-83
2022/03/13 00:20:46;;;;;;;16.48;9.80;;;6.20;99.90;;;;;;5026610;28;20091;-83
2022/03/13 00:23:12;;;;;;;16.05;10.02;;;6.10;99.90;;;;;;5011012;28;20029;-83
2022/03/13 00:25:39;;;;;;;16.13;9.77;;;6.10;99.90;;;;;;4974310;28;20036;-83
2022/03/13 00:28:05;;;;;;;18.17;10.75;;;6.10;99.90;;;;;;4991196;28;20087;-83
2022/03/13 00:30:31;;;;;;;23.15;11.07;;;6.10;99.90;;;;;;4987563;28;20053;-83
2022/03/13 00:32:59;;;;;;;17.50;10.15;;;6.00;99.90;;;;;;4990727;28;20037;-83
2022/03/13 00:35:24;;;;;;;17.55;10.38;;;7.50;99.90;;;;;;5009585;28;20057;-83
2022/03/13 00:37:50;;;;;;;16.40;9.80;;;7.30;99.90;;;;;;5011976;28;20082;-83
2022/03/13 00:40:16;;;;;;;17.83;10.43;;;5.90;99.90;;;;;;5010085;28;20158;-83
2022/03/13 00:42:42;;;;;;;16.75;9.90;;;5.90;99.90;;;;;;4996099;28;20521;-83
2022/03/13 00:45:10;;;;;;;17.48;10.13;;;6.80;99.90;;;;;;5008992;28;20135;-84
2022/03/13 00:47:36;;;;;;;17.67;9.85;;;5.90;99.90;;;;;;5028432;28;20095;-83
2022/03/13 00:50:02;;;;;;;17.73;10.60;;;;;;;;;;4997330;28;20052;-83
2022/03/13 00:52:28;;;;;;;19.30;10.57;;;5.90;99.90;;;;;;5008562;28;20519;-83
2022/03/13 00:54:53;;;;;;;17.85;10.77;;;5.80;99.90;;;;;;4994879;28;20148;-83
2022/03/13 00:57:19;;;;;;;18.25;11.15;;;5.80;99.90;;;;;;4989121;28;20033;-83
2022/03/13 00:59:46;;;;;;;16.45;10.18;;;5.80;99.90;;;;;;4971900;28;20029;-83
2022/03/13 01:02:13;;;;;;;17.30;10.40;;;5.80;99.90;;;;;;5007721;28;20041;-83
2022/03/13 01:04:39;;;;;;;17.15;10.52;;;6.20;99.90;;;;;;5026250;28;20112;-83
2022/03/13 01:07:05;;;;;;;18.80;11.32;;;6.60;99.90;;;;;;5023836;28;20128;-83
2022/03/13 01:09:30;;;;;;;17.33;10.38;;;5.70;99.90;;;;;;4975202;28;20671;-83
2022/03/13 01:11:56;;;;;;;20.10;11.00;;;5.70;99.90;;;;;;4987031;28;20060;-83
2022/03/13 01:14:23;;;;;;;17.98;10.80;;;5.70;99.90;;;;;;5014090;28;20420;-83
2022/03/13 01:17:03;;;;;;;18.00;10.80;;;5.70;99.90;;;;;;5015279;28;20060;-83
2022/03/13 01:19:29;;;;;;;17.92;11.20;;;7.20;99.90;;;;;;5029997;28;20067;-83
2022/03/13 01:21:55;;;;;;;17.38;10.65;;;5.70;99.90;;;;;;5026504;28;20044;-83
2022/03/13 01:24:28;;;;;;;18.52;11.23;;;6.20;99.90;;;;;;5024137;28;20562;-84
2022/03/13 01:26:56;;;;;;;;;;;6.40;99.90;;;;;;5026546;28;20033;-83
2022/03/13 01:29:22;;;;;;;21.27;11.35;;;5.90;99.90;;;;;;5029648;28;19931;-84
2022/03/13 01:31:49;;;;;;;17.52;10.63;;;6.80;99.90;;;;;;4990144;28;20044;-83
2022/03/13 01:34:35;;;;;;;18.90;10.55;;;6.90;99.90;;;;;;5010232;28;20433;-83
2022/03/13 01:37:02;;;;;;;20.65;11.23;;;6.40;99.90;;;;;;5005359;28;20049;-83
2022/03/13 01:39:29;;;;;;;18.80;10.23;;;5.80;99.90;;;;;;5015407;28;20049;-83
2022/03/13 01:41:55;;;;;;;17.80;11.10;;;6.90;99.90;;;;;;5004197;28;20041;-83
2022/03/13 01:44:21;;;;;;;18.48;10.70;;;6.60;99.90;;;;;;5029068;28;20119;-84
2022/03/13 01:46:47;;;;;;;19.00;11.07;;;6.90;99.90;;;;;;5029772;28;20033;-83
2022/03/13 01:49:13;;;;;;;17.85;11.63;;;5.90;99.90;;;;;;5035102;28;20029;-83
2022/03/13 01:51:39;;;;;;;20.88;11.10;;;6.70;99.90;;;;;;5010485;28;20045;-83
2022/03/13 01:54:08;;;;;;;18.45;11.40;;;6.20;99.90;;;;;;5010889;28;20065;-83
2022/03/13 01:56:35;;;;;;;19.60;10.85;;;5.90;99.90;;;;;;5008280;28;20517;-83
2022/03/13 01:59:02;;;;;;;19.10;11.55;;;7.20;99.90;;;;;;5014285;28;20425;-83
2022/03/13 02:01:28;;;;;;;17.00;10.20;;;5.90;99.90;;;;;;5009787;28;20037;-83
2022/03/13 02:03:54;;;;;;;17.13;10.63;;;5.90;99.90;;;;;;5013028;28;20502;-83
2022/03/13 02:06:23;;;;;;;20.85;11.20;;;7.40;99.90;;;;;;5013152;28;20033;-83
2022/03/13 02:08:50;;;;;;;18.33;10.75;;;6.90;99.90;;;;;;5028288;28;20730;-82
2022/03/13 02:11:21;;;;;;;17.58;10.73;;;6.60;99.90;;;;;;5034013;28;20136;-83
2022/03/13 02:13:49;;;;;;;18.88;11.27;;;6.40;99.90;;;;;;5012215;28;20096;-83
2022/03/13 02:16:17;;;;;;;17.50;10.85;;;5.90;99.90;;;;;;4988612;28;20053;-83
2022/03/13 02:18:48;;;;;;;18.42;11.55;;;6.40;99.90;;;;;;5011196;28;20052;-83
2022/03/13 02:21:18;;;;;;;17.33;10.15;;;6.70;99.90;;;;;;5008324;28;20095;-83
2022/03/13 02:23:45;;;;;;;17.50;10.68;;;7.70;99.90;;;;;;5010642;28;20029;-84
2022/03/13 02:26:11;;;;;;;20.35;11.23;;;6.80;99.90;;;;;;4989537;28;20029;-84
2022/03/13 02:28:42;;;;;;;18.25;10.63;;;6.00;99.90;;;;;;5006955;28;20076;-83
2022/03/13 02:31:18;;;;;;;17.65;10.27;;;6.30;99.90;;;;;;5026523;28;20425;-83
2022/03/13 02:33:43;;;;;;;18.17;11.70;;;6.80;99.90;;;;;;5008169;28;20401;-83
2022/03/13 02:36:23;;;;;;;19.00;10.90;;;6.70;99.90;;;;;;4988499;28;20045;-83
2022/03/13 02:38:48;;;;;;;17.23;10.73;;;6.20;99.90;;;;;;5026765;28;20493;-83
2022/03/13 02:41:14;;;;;;;18.95;11.18;;;7.20;99.90;;;;;;5012838;28;20032;-83
2022/03/13 02:43:40;;;;;;;17.77;10.60;;;7.70;99.90;;;;;;5010579;28;20512;-83
2022/03/13 02:46:19;;;;;;;17.75;10.75;;;6.40;99.90;;;;;;5012287;28;20037;-83
2022/03/13 02:48:44;;;;;;;18.77;11.48;;;6.40;99.90;;;;;;5017245;28;20116;-83
2022/03/13 02:51:10;;;;;;;18.25;10.70;;;6.40;99.90;;;;;;5030068;28;20124;-83
2022/03/13 02:53:37;;;;;;;17.15;10.32;;;6.90;99.90;;;;;;4972842;28;20144;-83
2022/03/13 02:56:03;;;;;;;18.27;11.15;;;6.40;99.90;;;;;;5009286;28;20041;-83
2022/03/13 02:58:29;;;;;;;18.70;11.05;;;6.40;99.90;;;;;;4987726;28;20045;-82
2022/03/13 03:00:56;;;;;;;17.08;10.32;;;6.40;99.90;;;;;;5006659;28;20041;-83
2022/03/13 03:03:23;;;;;;;16.75;10.65;;;6.80;99.90;;;;;;5011634;28;20048;-83
2022/03/13 03:05:50;;;;;;;19.08;11.07;;;6.30;99.90;;;;;;5013429;28;20037;-82
2022/03/13 03:08:17;;;;;;;16.75;10.73;;;6.70;99.90;;;;;;5014419;28;20130;-83
2022/03/13 03:10:44;;;;;;;17.60;10.95;;;7.60;99.90;;;;;;4989036;28;20491;-83
2022/03/13 03:13:11;;;;;;;17.95;10.77;;;6.30;99.90;;;;;;4993869;28;20045;-82
2022/03/13 03:15:38;;;;;;;18.95;10.60;;;7.20;99.90;;;;;;5002628;28;20048;-83
2022/03/13 03:18:06;;;;;;;18.65;10.55;;;7.40;99.90;;;;;;4995786;28;20038;-82
2022/03/13 03:20:31;;;;;;;17.67;10.82;;;6.20;99.90;;;;;;5035802;28;20422;-83
2022/03/13 03:22:57;;;;;;;17.55;11.02;;;6.30;99.90;;;;;;4989898;28;20034;-83
2022/03/13 03:25:26;;;;;;;19.65;11.75;;;6.20;99.90;;;;;;4992655;28;20038;-83
2022/03/13 03:27:52;;;;;;;16.60;10.07;;;6.20;99.90;;;;;;4993444;28;20044;-83
2022/03/13 03:30:20;;;;;;;18.40;11.00;;;6.20;99.90;;;;;;4999767;28;20053;-83
2022/03/13 03:32:46;;;;;;;17.90;11.43;;;7.50;99.90;;;;;;4973970;28;20044;-83
2022/03/13 03:35:12;;;;;;;18.25;10.90;;;6.20;99.90;;;;;;4975683;28;20036;-83
2022/03/13 03:37:38;;;;;;;18.95;11.10;;;7.30;99.90;;;;;;4980339;28;20403;-83
2022/03/13 03:40:05;;;;;;;18.02;11.32;;;7.20;99.90;;;;;;4986769;28;20052;-83
2022/03/13 03:42:31;;;;;;;17.00;10.80;;;6.10;99.90;;;;;;4992155;28;20033;-83
2022/03/13 03:44:57;;;;;;;17.95;11.35;;;7.40;99.90;;;;;;4991195;28;20042;-83
2022/03/13 03:47:23;;;;;;;18.63;11.48;;;7.50;99.90;;;;;;4974641;28;20427;-83
2022/03/13 03:49:49;;;;;;;17.90;11.35;;;6.80;99.90;;;;;;4991534;28;20147;-84
2022/03/13 03:52:14;;;;;;;18.17;11.48;;;6.00;99.90;;;;;;4976146;28;20037;-83
2022/03/13 03:54:40;;;;;;;21.27;11.02;;;6.50;99.90;;;;;;4993742;28;20044;-83
2022/03/13 03:57:06;;;;;;;18.45;11.23;;;6.00;99.90;;;;;;4959331;28;20045;-83
2022/03/13 03:59:31;;;;;;;20.70;11.80;;;5.90;99.90;;;;;;4965271;28;20121;-83
2022/03/13 04:01:57;;;;;;;18.27;11.68;;;7.30;99.90;;;;;;4960501;28;20072;-84
2022/03/13 04:04:23;;;;;;;17.45;10.93;;;5.90;99.90;;;;;;4987753;28;20033;-84
2022/03/13 04:06:49;;;;;;;17.75;10.73;;;5.90;99.90;;;;;;4960035;28;20037;-83
2022/03/13 04:09:15;;;;;;;18.80;11.45;;;6.90;99.90;;;;;;4977647;28;20482;-84
2022/03/13 04:11:41;;;;;;;18.10;11.43;;;7.50;99.90;;;;;;4969934;28;20042;-83
2022/03/13 04:14:08;;;;;;;19.40;11.80;;;5.80;99.90;;;;;;4978528;28;20045;-83
2022/03/13 04:16:34;;;;;;;17.42;11.02;;;6.20;99.90;;;;;;5025820;28;20061;-83
2022/03/13 04:19:00;;;;;;;18.77;11.63;;;5.70;99.90;;;;;;5009060;28;20625;-84
2022/03/13 04:21:26;;;;;;;20.52;11.43;;;6.50;99.90;;;;;;5025292;28;20045;-83
2022/03/13 04:23:53;;;;;;;18.70;11.68;;;5.90;99.90;;;;;;4973628;28;20174;-84
2022/03/13 04:26:20;;;;;;;18.02;11.23;;;5.50;99.90;;;;;;5004009;28;20038;-84
2022/03/13 04:28:49;;;;;;;19.83;11.73;;;5.90;99.90;;;;;;5003629;28;20124;-83
2022/03/13 04:31:16;;;;;;;17.88;10.63;;;5.40;99.90;;;;;;5027514;28;20045;-84
2022/03/13 04:33:42;;;;;;;18.90;11.50;;;6.20;99.90;;;;;;5008961;28;20044;-84
2022/03/13 04:36:13;;;;;;;20.38;12.75;;;5.70;99.90;;;;;;4994203;28;20065;-83
2022/03/13 04:38:41;;;;;;;18.75;11.20;;;6.70;99.90;;;;;;4999494;28;20062;-83
2022/03/13 04:41:06;;;;;;;18.27;11.50;;;6.40;99.90;;;;;;5009706;28;20044;-83
2022/03/13 04:43:32;;;;;;;18.25;11.35;;;5.00;99.90;;;;;;5022072;28;20045;-83
2022/03/13 04:45:58;;;;;;;19.15;11.27;;;5.00;99.90;;;;;;4973746;28;20029;-84
2022/03/13 04:48:23;;;;;;;18.25;11.48;;;6.90;99.90;;;;;;5024935;28;20044;-83
2022/03/13 04:50:49;;;;;;;18.83;11.60;;;4.90;99.90;;;;;;5008763;28;20037;-83
2022/03/13 04:53:15;;;;;;;18.58;11.35;;;6.40;99.90;;;;;;4978018;28;20029;-83
2022/03/13 04:55:42;;;;;;;17.75;11.40;;;6.20;99.90;;;;;;5011433;28;20107;-83
2022/03/13 04:58:08;;;;;;;17.50;10.60;;;6.10;99.90;;;;;;5010873;28;20055;-82
2022/03/13 05:00:36;;;;;;;19.50;11.48;;;6.00;99.90;;;;;;5005111;28;20045;-83
2022/03/13 05:03:03;;;;;;;19.08;10.98;;;5.90;99.90;;;;;;4991172;28;20524;-83
2022/03/13 05:05:28;;;;;;;19.38;11.40;;;4.80;99.90;;;;;;5010440;28;20529;-83
2022/03/13 05:07:54;;;;;;;18.52;11.23;;;4.80;99.90;;;;;;4994377;28;20045;-83
2022/03/13 05:10:21;;;;;;;20.00;12.15;;;4.80;99.90;;;;;;5008128;28;20037;-83
2022/03/13 05:12:47;;;;;;;18.08;11.23;;;4.80;99.90;;;;;;5027565;28;20044;-83
2022/03/13 05:15:13;;;;;;;17.75;11.18;;;5.00;99.90;;;;;;5012910;28;20057;-83
2022/03/13 05:17:39;;;;;;;19.52;10.73;;;5.40;99.90;;;;;;4994645;28;20055;-83
2022/03/13 05:20:05;;;;;;;19.85;10.85;;;4.80;99.90;;;;;;4998325;28;20041;-83
2022/03/13 05:22:32;;;;;;;17.55;10.82;;;4.80;99.90;;;;;;5008915;28;20033;-83
2022/03/13 05:24:58;;;;;;;17.75;10.23;;;4.80;99.90;;;;;;5029969;28;20040;-83
2022/03/13 05:27:23;;;;;;;17.55;10.68;;;6.10;99.90;;;;;;5011533;28;20076;-83
2022/03/13 05:29:49;;;;;;;16.83;10.00;;;6.10;99.90;;;;;;5005801;28;20064;-83
2022/03/13 05:32:15;;;;;;;18.10;10.43;;;5.70;99.90;;;;;;4986713;28;20073;-84
2022/03/13 05:34:42;;;;;;;17.92;10.60;;;4.90;99.90;;;;;;5008374;28;20049;-83
2022/03/13 05:37:08;;;;;;;17.17;10.23;;;4.80;99.90;;;;;;5011835;28;20049;-83
2022/03/13 05:39:35;;;;;;;18.38;10.65;;;4.80;99.90;;;;;;5014842;28;20033;-82
2022/03/13 05:42:01;;;;;;;18.10;10.68;;;5.10;99.90;;;;;;5010075;28;20037;-82
2022/03/13 05:44:31;;;;;;;17.67;10.32;;;4.80;99.90;;;;;;5003158;28;20042;-83
2022/03/13 05:46:56;;;;;;;16.77;10.00;;;6.20;99.90;;;;;;4974341;28;20049;-84
2022/03/13 05:49:22;;;;;;;16.13;9.98;;;4.70;99.90;;;;;;5013997;28;20495;-83
2022/03/13 05:51:48;;;;;;;19.05;9.73;;;5.50;99.90;;;;;;5006749;28;20072;-83
2022/03/13 05:54:13;;;;;;;19.05;10.52;;;6.00;99.90;;;;;;4975290;28;20024;-83
2022/03/13 05:56:39;;;;;;;16.45;9.93;;;6.10;99.90;;;;;;4976478;28;20041;-83
2022/03/13 05:59:05;;;;;;;17.05;9.85;;;5.40;99.90;;;;;;4975451;28;20037;-83
2022/03/13 06:01:30;;;;;;;17.35;10.07;;;5.90;99.90;;;;;;5003982;28;20040;-83
2022/03/13 06:04:00;;;;;;;17.13;10.23;;;5.70;99.90;;;;;;5008085;28;20507;-83
2022/03/13 06:06:26;;;;;;;17.52;9.63;;;5.90;99.90;;;;;;5011856;28;20045;-84
2022/03/13 06:08:52;;;;;;;16.25;9.82;;;5.00;99.90;;;;;;5025732;28;20406;-83
2022/03/13 06:11:18;;;;;;;17.38;10.35;;;4.80;99.90;;;;;;5004982;28;20057;-84
2022/03/13 06:13:43;;;;;;;16.83;10.35;;;4.90;99.90;;;;;;4993511;28;20037;-83
2022/03/13 06:16:09;;;;;;;16.83;10.48;;;5.80;99.90;;;;;;5011091;28;20068;-83
2022/03/13 06:18:37;;;;;;;15.75;9.65;;;4.90;99.90;;;;;;5009360;28;20046;-83
2022/03/13 06:21:03;;;;;;;16.08;9.65;;;5.00;99.90;;;;;;5026690;28;20120;-83
2022/03/13 06:23:29;;;;;;;17.83;10.20;;;5.00;99.90;;;;;;5025955;28;20037;-83
2022/03/13 06:25:58;;;;;;;17.40;10.43;;;5.00;99.90;;;;;;5010010;28;20056;-83
2022/03/13 06:28:24;;;;;;;16.38;10.00;;;5.00;99.90;;;;;;5026932;28;20038;-83
2022/03/13 06:30:50;;;;;;;16.50;9.90;;;6.50;99.90;;;;;;4991447;28;20041;-83
2022/03/13 06:33:16;;;;;;;16.33;9.70;;;6.60;99.90;;;;;;5008554;28;20044;-83
2022/03/13 06:35:42;;;;;;;17.88;10.57;;;5.10;99.90;;;;;;4993987;28;20045;-83
2022/03/13 06:38:08;;;;;;;16.38;9.38;;;6.60;99.90;;;;;;4993900;28;20041;-83
2022/03/13 06:40:34;;;;;;;17.60;10.10;;;5.20;99.90;;;;;;5027697;28;20043;-83
2022/03/13 06:43:00;;;;;;;17.60;10.00;;;6.60;99.90;;;;;;4974120;28;20664;-83
2022/03/13 06:45:26;;;;;;;16.75;9.93;;;5.30;99.90;;;;;;5011071;28;20045;-83
2022/03/13 06:47:52;;;;;;;16.95;10.05;;;6.70;99.90;;;;;;4988471;28;20534;-83
2022/03/13 06:50:23;;;;;;;16.48;9.55;;;6.00;99.90;;;;;;5004736;28;20032;-83
2022/03/13 06:52:50;;;;;;;16.50;9.77;;;5.40;99.90;;;;;;5008002;28;20510;-84
2022/03/13 06:55:16;;;;;;;17.00;9.73;;;5.40;99.90;;;;;;4993036;28;20048;-83
2022/03/13 06:57:43;;;;;;;16.52;9.70;;;5.50;99.90;;;;;;5006248;28;20422;-83
2022/03/13 07:00:12;;;;;;;15.90;9.88;;;6.70;99.90;;;;;;5022832;28;20172;-83
2022/03/13 07:02:38;;;;;;;17.17;9.95;;;5.50;99.90;;;;;;5007164;28;20112;-84
2022/03/13 07:05:04;;;;;;;18.23;9.82;;;6.80;99.90;;;;;;4993762;28;20187;-83
2022/03/13 07:07:30;;;;;;;16.25;9.30;;;5.50;99.90;;;;;;4973337;28;20033;-82
2022/03/13 07:09:57;;;;;;;16.35;9.90;;;5.80;99.90;;;;;;4987239;28;20426;-84
2022/03/13 07:12:24;;;;;;;16.20;9.63;;;5.90;99.90;;;;;;4982812;28;20040;-83
2022/03/13 07:14:51;;;;;;;18.90;10.18;;;5.50;99.90;;;;;;5006022;28;20186;-83
2022/03/13 07:17:18;;;;;;;17.65;9.63;;;5.50;99.90;;;;;;5006315;28;20040;-84
2022/03/13 07:19:44;;;;;;;16.63;9.77;;;6.30;99.90;;;;;;5001095;28;20053;-83
2022/03/13 07:22:13;;;;;;;16.35;9.75;;;5.50;99.90;;;;;;5009331;28;20036;-83
2022/03/13 07:24:41;;;;;;;15.20;9.15;;;5.50;99.90;;;;;;5025943;28;20036;-83
2022/03/13 07:27:07;;;;;;;16.63;9.45;;;6.80;99.90;;;;;;5025528;28;20045;-84
2022/03/13 07:29:33;;;;;;;19.35;10.48;;;5.60;99.90;;;;;;5013541;28;20442;-83
2022/03/13 07:31:59;;;;;;;16.48;9.73;;;6.30;99.90;;;;;;4979113;28;20043;-83
2022/03/13 07:34:26;;;;;;;15.45;9.38;;;5.60;99.90;;;;;;5010771;28;20113;-83
2022/03/13 07:36:52;;;;;;;16.67;9.45;;;5.70;99.90;;;;;;5007986;28;20049;-83
2022/03/13 07:39:19;;;;;;;15.27;9.20;;;6.50;99.90;;;;;;4994520;28;20141;-83
2022/03/13 07:41:48;;;;;;;16.27;9.15;;;7.00;99.90;;;;;;4996662;28;20394;-83
2022/03/13 07:44:14;;;;;;;15.75;9.40;;;6.40;99.90;;;;;;4989928;28;20460;-83
2022/03/13 07:46:41;;;;;;;16.33;9.25;;;6.70;99.90;;;;;;4991513;28;20166;-83
2022/03/13 07:49:06;;;;;;;16.50;9.98;;;6.70;99.90;;;;;;5028532;28;20041;-83
2022/03/13 07:51:34;;;;;;;15.02;9.38;;;6.10;99.90;;;;;;4991517;28;20410;-83
2022/03/13 07:54:01;;;;;;;14.93;8.38;;;6.10;99.90;;;;;;5012236;28;20270;-83
2022/03/13 07:56:27;;;;;;;17.65;9.13;;;6.30;99.90;;;;;;4976911;28;20079;-83
2022/03/13 07:58:54;;;;;;;17.55;9.40;;;7.20;99.90;;;;;;4995565;28;20045;-82
2022/03/13 08:01:19;;;;;;;15.10;9.02;;;7.60;99.90;;;;;;5006674;28;20044;-83
2022/03/13 08:03:45;;;;;;;16.25;9.43;;;6.90;99.90;;;;;;4977142;28;20423;-83
2022/03/13 08:06:12;;;;;;;16.52;9.38;;;6.70;99.90;;;;;;5011509;28;20416;-83
2022/03/13 08:08:37;;;;;;;16.05;9.13;;;6.90;99.90;;;;;;5010394;28;20041;-83
2022/03/13 08:11:03;;;;;;;16.17;9.25;;;7.10;99.90;;;;;;5009718;28;20045;-82
2022/03/13 08:13:29;;;;;;;16.55;9.10;;;8.00;99.90;;;;;;4994498;28;20461;-83
2022/03/13 08:15:55;;;;;;;16.25;8.75;;;7.50;99.90;;;;;;4994925;28;20457;-83
2022/03/13 08:18:21;;;;;;;14.32;8.05;;;7.60;99.90;;;;;;5027227;28;20040;-83
2022/03/13 08:20:47;;;;;;;14.45;8.55;;;8.10;99.90;;;;;;5025690;28;20049;-82
2022/03/13 08:23:14;;;;;;;16.52;8.80;;;7.80;99.90;;;;;;4993372;28;20037;-82
2022/03/13 08:25:40;;;;;;;14.63;8.82;;;7.80;99.90;;;;;;5025181;28;20119;-84
2022/03/13 08:28:06;;;;;;;14.60;8.32;;;7.80;99.90;;;;;;4991159;28;20043;-82
2022/03/13 08:30:33;;;;;;;16.10;9.50;;;7.90;99.90;;;;;;5004871;28;20083;-82
2022/03/13 08:32:59;;;;;;;15.90;8.52;;;8.00;99.90;;;;;;5010348;28;20072;-85
2022/03/13 08:35:24;;;;;;;14.35;8.15;;;8.10;99.90;;;;;;5000515;28;20478;-80
2022/03/13 08:37:52;;;;;;;16.40;8.77;;;8.40;99.90;;;;;;5025631;28;20041;-83
2022/03/13 08:40:19;;;;;;;16.42;8.82;;;8.70;99.90;;;;;;5005115;28;20506;-83
2022/03/13 08:42:44;;;;;;;17.00;9.15;;;8.20;99.90;;;;;;5024121;28;20120;-84
2022/03/13 08:45:11;;;;;;;15.45;8.88;;;8.20;99.90;;;;;;4990789;28;20116;-86
2022/03/13 08:47:38;;;;;;;15.27;8.93;;;8.20;99.90;;;;;;5007875;28;20106;-83
2022/03/13 08:50:06;;;;;;;14.13;8.13;;;8.50;99.90;;;;;;5010727;28;20668;-85
2022/03/13 08:52:32;;;;;;;15.93;8.38;;;8.30;99.90;;;;;;4994253;28;20670;-84
2022/03/13 08:54:57;;;;;;;16.45;9.00;;;8.30;99.90;;;;;;5008502;28;20045;-84
2022/03/13 08:57:23;;;;;;;15.98;8.75;;;8.40;99.90;;;;;;5008570;28;20073;-85
2022/03/13 08:59:49;;;;;;;16.30;8.60;;;9.70;99.90;;;;;;5010394;28;20041;-84
2022/03/13 09:02:17;;;;;;;17.13;9.15;;;9.00;99.90;;;;;;5011656;28;20115;-82
2022/03/13 09:04:43;;;;;;;16.45;9.10;;;8.70;99.90;;;;;;4979232;28;20037;-85
2022/03/13 09:07:09;;;;;;;16.95;9.18;;;9.70;99.90;;;;;;4974986;28;20037;-84
2022/03/13 09:09:35;;;;;;;14.60;8.80;;;8.90;99.90;;;;;;4993017;28;20076;-84
2022/03/13 09:12:02;;;;;;;16.67;9.00;;;9.20;99.90;;;;;;5002161;28;20034;-83
2022/03/13 09:14:28;;;;;;;16.10;8.15;;;9.40;99.90;;;;;;4990553;28;20540;-84
2022/03/13 09:16:54;;;;;;;16.40;8.43;;;9.50;99.90;;;;;;5010746;28;20068;-87
2022/03/13 09:19:20;;;;;;;13.73;8.23;;;9.60;99.90;;;;;;5009398;28;20084;-86
2022/03/13 09:21:47;;;;;;;16.02;9.00;;;9.80;99.90;;;;;;4990631;28;20124;-83
2022/03/13 09:24:12;;;;;;;16.23;8.70;;;9.90;99.90;;;;;;4992129;28;20518;-82
2022/03/13 09:26:41;;;;;;;15.75;8.70;;;11.00;99.90;;;;;;4994149;28;20124;-82
2022/03/13 09:29:07;;;;;;;16.67;9.00;;;10.10;99.90;;;;;;4991225;28;20597;-82
2022/03/13 09:31:34;;;;;;;14.88;8.27;;;10.20;99.90;;;;;;5042717;28;20069;-81
2022/03/13 09:34:00;;;;;;;18.05;8.57;;;10.30;99.90;;;;;;5005054;28;20131;-82
2022/03/13 09:36:25;;;;;;;17.15;9.23;;;10.30;99.90;;;;;;4993417;28;20112;-82
2022/03/13 09:38:52;;;;;;;14.90;8.05;;;10.40;99.90;;;;;;4997923;28;20111;-83
2022/03/13 09:41:19;;;;;;;15.15;8.45;;;10.50;99.90;;;;;;5011758;28;20052;-83
2022/03/13 09:43:45;;;;;;;14.70;8.48;;;10.60;99.90;;;;;;5011989;28;20047;-84
2022/03/13 09:46:12;;;;;;;14.07;8.35;;;10.60;99.90;;;;;;5009848;28;20037;-85
2022/03/13 09:48:38;;;;;;;14.77;8.45;;;10.70;99.90;;;;;;5029039;28;20043;-85
2022/03/13 09:51:06;;;;;;;16.13;8.75;;;10.80;99.90;;;;;;4997808;28;20041;-84
2022/03/13 09:53:34;;;;;;;14.25;8.35;;;11.00;99.90;;;;;;5010509;28;20037;-85
2022/03/13 09:56:03;;;;;;;14.57;8.23;;;11.10;99.90;;;;;;5013226;28;20048;-84
2022/03/13 09:58:29;;;;;;;15.13;8.13;;;11.20;99.90;;;;;;5011324;28;20037;-84
2022/03/13 10:00:57;;;;;;;15.23;8.57;;;11.40;99.90;;;;;;5014361;28;20106;-85
2022/03/13 10:03:22;;;;;;;15.73;8.25;;;11.40;99.90;;;;;;5012263;28;20436;-85
2022/03/13 10:05:50;;;;;;;15.82;8.23;;;12.50;99.90;;;;;;5005911;28;20112;-85
2022/03/13 10:08:17;;;;;;;15.70;8.50;;;11.60;99.90;;;;;;5011761;28;20437;-84
2022/03/13 10:10:45;;;;;;;16.88;9.05;;;11.70;98.80;;;;;;5029553;28;20044;-84
2022/03/13 10:13:14;;;;;;;15.80;8.57;;;11.80;98.10;;;;;;5008612;28;20050;-85
2022/03/13 10:15:46;;;;;;;13.90;8.25;;;13.30;95.00;;;;;;5008258;28;20049;-85
2022/03/13 10:18:20;;;;;;;17.23;9.15;;;12.00;94.60;;;;;;5023336;28;20060;-84
2022/03/13 10:20:48;;;;;;;16.42;8.63;;;12.10;94.90;;;;;;5026511;28;20499;-85
2022/03/13 10:23:17;;;;;;;15.77;9.10;;;12.10;93.50;;;;;;5006293;28;20368;-85
2022/03/13 10:25:44;;;;;;;16.15;9.23;;;12.20;94.30;;;;;;5010972;28;20034;-84
2022/03/13 10:28:30;;;;;;;14.48;8.70;;;12.30;93.70;;;;;;5011221;28;20034;-85
2022/03/13 10:30:59;;;;;;;15.18;8.43;;;12.30;95.40;;;;;;4994517;28;20512;-84
2022/03/13 10:33:27;;;;;;;16.65;8.90;;;12.40;94.60;;;;;;5014991;28;20108;-85
2022/03/13 10:36:31;;;;;;;21.77;12.23;;;12.50;95.90;;;;;;4997569;28;20075;-85
2022/03/13 10:38:57;;;;;;;16.95;10.00;;;12.60;91.60;;;;;;5013409;28;20053;-85
2022/03/13 10:41:45;;;;;;;16.10;9.90;;;12.70;94.10;;;;;;5011105;28;20174;-85
2022/03/13 10:44:21;;;;;;;15.32;9.10;;;12.80;90.80;;;;;;5009585;28;20037;-85
2022/03/13 10:46:56;;;;;;;18.30;10.02;;;12.90;87.50;;;;;;5011911;28;20040;-85
2022/03/13 10:49:42;;;;;;;18.02;10.27;;;12.90;88.00;;;;;;5013525;28;20068;-85
2022/03/13 10:52:30;;;;;;;19.25;11.77;;;13.00;80.90;;;;;;5009918;28;20069;-85
2022/03/13 10:55:15;;;;;;;15.77;9.88;;;13.20;84.30;;;;;;5012752;28;20044;-85
2022/03/13 10:57:55;;;;;;;16.80;10.52;;;13.20;82.20;;;;;;5012277;28;20025;-85
2022/03/13 11:00:22;;;;;;;16.55;8.77;;;13.20;79.20;;;;;;5014170;28;20536;-85
2022/03/13 11:02:49;;;;;;;14.43;8.88;;;13.00;78.40;;;;;;4997606;28;20029;-85
2022/03/13 11:05:15;;;;;;;15.98;8.82;;;13.30;78.20;;;;;;5012832;28;20032;-85
2022/03/13 11:07:41;;;;;;;17.27;9.95;;;13.30;77.80;;;;;;5012832;28;20033;-84
2022/03/13 11:10:09;;;;;;;18.27;10.35;;;13.30;78.50;;;;;;4996040;28;20091;-83
2022/03/13 11:12:37;;;;;;;18.15;10.00;;;13.20;79.70;;;;;;5029062;28;20048;-86
2022/03/13 11:15:04;;;;;;;16.02;9.70;;;13.20;81.50;;;;;;5009273;28;20095;-85
2022/03/13 11:17:32;;;;;;;16.90;9.70;;;13.30;80.80;;;;;;4975279;28;20048;-85
2022/03/13 11:20:00;;;;;;;16.33;9.00;;;13.40;79.30;;;;;;4980244;28;20045;-84
2022/03/13 11:22:27;;;;;;;16.48;9.13;;;13.60;78.60;;;;;;4996754;28;20033;-86
2022/03/13 11:24:57;;;;;;;20.20;9.45;;;13.80;77.30;;;;;;5009889;28;20034;-84
2022/03/13 11:27:27;;;;;;;16.05;8.95;;;13.90;75.50;;;;;;4990884;28;20052;-84
2022/03/13 11:29:54;;;;;;;15.70;8.70;;;14.00;74.80;;;;;;5006122;28;20045;-84
2022/03/13 11:32:43;;;;;;;16.92;9.70;;;14.10;72.80;;;;;;5038300;28;20041;-85
2022/03/13 11:35:15;;;;;;;14.18;9.02;;;14.20;71.20;;;;;;4996786;28;20045;-85
2022/03/13 11:37:51;;;;;;;14.27;8.40;;;14.40;71.70;;;;;;5015869;28;20041;-85
2022/03/13 11:40:30;;;;;;;15.60;9.50;;;14.50;71.20;;;;;;4999771;28;20056;-85
2022/03/13 11:43:12;;;;;;;15.60;9.07;;;14.70;70.40;;;;;;5042305;28;20398;-85
2022/03/13 11:45:59;;;;;;;15.15;8.73;;;14.80;70.00;;;;;;5014930;28;20120;-85
2022/03/13 11:48:25;;;;;;;14.98;9.00;;;14.90;70.10;;;;;;5013841;28;20041;-85
2022/03/13 11:51:03;;;;;;;16.85;9.15;;;14.90;68.70;;;;;;5012314;28;20405;-85
2022/03/13 11:53:40;;;;;;;14.70;8.45;;;14.90;68.30;;;;;;5000066;28;20048;-86
2022/03/13 11:56:09;;;;;;;14.50;8.35;;;15.00;68.40;;;;;;5011701;28;20037;-85
2022/03/13 11:58:48;;;;;;;17.00;8.80;;;14.90;67.30;;;;;;4997233;28;20043;-85
2022/03/13 12:01:21;;;;;;;16.08;8.90;;;15.00;68.10;;;;;;5022719;28;20624;-85
2022/03/13 12:04:04;;;;;;;15.45;9.05;;;15.00;68.00;;;;;;5017254;28;20080;-85
2022/03/13 12:06:52;;;;;;;14.90;9.20;;;15.00;66.00;;;;;;5014952;28;20067;-84
2022/03/13 12:09:19;;;;;;;14.45;8.48;;;15.00;66.20;;;;;;5013986;28;20033;-85
2022/03/13 12:12:00;;;;;;;14.38;9.13;;;14.90;67.00;;;;;;5003270;28;20087;-86
2022/03/13 12:14:52;;;;;;;13.93;8.85;;;15.00;67.00;;;;;;5003058;28;20048;-85
2022/03/13 12:17:19;;;;;;;14.07;8.13;;;15.00;65.80;;;;;;5023417;28;20473;-86
2022/03/13 12:19:45;;;;;;;15.77;9.02;;;14.90;66.20;;;;;;5006382;28;20068;-86
2022/03/13 12:22:12;;;;;;;15.25;8.80;;;14.90;65.70;;;;;;5009007;28;20041;-86
2022/03/13 12:24:39;;;;;;;14.90;8.75;;;14.90;65.70;;;;;;5012856;28;20629;-85
2022/03/13 12:27:07;;;;;;;15.75;9.50;;;14.90;65.30;;;;;;5013448;28;20106;-85
2022/03/13 12:29:33;;;;;;;14.85;8.48;;;15.00;65.30;;;;;;5022159;28;20098;-85
2022/03/13 12:32:00;;;;;;;16.45;8.43;;;15.00;65.30;;;;;;4994458;28;20045;-85
2022/03/13 12:34:30;;;;;;;14.68;8.70;;;15.00;64.90;;;;;;5007748;28;20033;-86
2022/03/13 12:37:02;;;;;;;14.90;8.75;;;14.90;63.70;;;;;;5010457;28;20059;-85
2022/03/13 12:39:29;;;;;;;13.38;7.63;;;15.00;64.30;;;;;;5007560;28;20094;-85
2022/03/13 12:42:04;;;;;;;16.05;8.65;;;15.00;64.20;;;;;;4994901;28;20037;-86
2022/03/13 12:44:30;;;;;;;13.43;8.40;;;15.00;63.10;;;;;;5013194;28;20048;-85